Time;durP1;ratioP1;P1;durP2;ratioP2;P2;SDS_P1;SDS_P2;PMS_P1;PMS_P2;Temp;Humidity;BMP_temperature;BMP_pressure;BME280_temperature;BME280_humidity;BME280_pressure;Samples;Min_cycle;Max_cycle;Signal;HPM_P1;HPM_P2
2022/03/11 00:00:56;;;;;;;36.40;10.60;;;;;;;-4.96;68.36;101230.59;103572;1300;24298;-27
2022/03/11 00:03:22;;;;;;;43.50;14.40;;;;;;;-4.99;68.28;101233.80;103571;1300;22617;-28
2022/03/11 00:05:48;;;;;;;49.00;13.70;;;;;;;-5.01;68.56;101231.09;103593;1300;22626;-26
2022/03/11 00:08:14;;;;;;;22.90;8.50;;;;;;;-5.02;68.40;101231.48;103554;1300;24209;-27
2022/03/11 00:10:40;;;;;;;37.90;11.50;;;;;;;-5.03;68.38;101228.02;103565;1300;24218;-27
2022/03/11 00:13:06;;;;;;;33.00;12.00;;;;;;;-5.04;68.02;101230.48;103463;1300;24438;-28
2022/03/11 00:15:32;;;;;;;34.80;11.60;;;;;;;-5.06;68.07;101230.21;103534;1300;24246;-25
2022/03/11 00:17:57;;;;;;;36.70;10.60;;;;;;;-5.06;68.21;101230.75;103563;1300;24215;-28
2022/03/11 00:20:24;;;;;;;24.70;9.60;;;;;;;-5.05;68.24;101228.80;103547;1300;24444;-28
2022/03/11 00:22:51;;;;;;;33.80;12.00;;;;;;;-5.06;68.36;101229.88;103590;1300;24380;-29
2022/03/11 00:25:17;;;;;;;29.90;10.90;;;;;;;-5.07;68.52;101231.48;103470;1300;22511;-25
2022/03/11 00:27:44;;;;;;;35.00;12.10;;;;;;;-5.11;69.01;101235.61;103476;1302;24207;-28
2022/03/11 00:30:10;;;;;;;63.70;19.70;;;;;;;-5.14;69.35;101230.31;103543;1300;24364;-25
2022/03/11 00:32:36;;;;;;;51.20;15.90;;;;;;;-5.18;69.29;101229.75;103546;1302;24255;-29
2022/03/11 00:35:03;;;;;;;63.30;14.70;;;;;;;-5.22;69.50;101226.37;103640;1300;24303;-25
2022/03/11 00:37:29;;;;;;;40.70;12.30;;;;;;;-5.20;69.52;101221.42;103572;1300;24367;-26
2022/03/11 00:39:54;;;;;;;46.10;15.20;;;;;;;-5.18;69.76;101220.46;103549;1300;24224;-26
2022/03/11 00:42:20;;;;;;;55.30;16.50;;;;;;;-5.20;69.78;101220.17;103564;1300;24239;-29
2022/03/11 00:44:46;;;;;;;40.20;13.20;;;;;;;-5.21;69.40;101217.10;103562;1300;24214;-25
2022/03/11 00:47:12;;;;;;;35.40;13.30;;;;;;;-5.23;69.42;101212.45;103509;1300;24304;-25
2022/03/11 00:49:38;;;;;;;46.50;13.50;;;;;;;-5.26;69.61;101209.94;103517;1300;22499;-36
2022/03/11 00:52:04;;;;;;;40.30;10.40;;;;;;;-5.31;69.48;101208.00;103511;1300;24286;-25
2022/03/11 00:54:30;;;;;;;71.00;23.40;;;;;;;-5.35;69.40;101209.02;103552;1300;23857;-28
2022/03/11 00:56:56;;;;;;;71.80;17.00;;;;;;;-5.34;69.61;101211.07;103554;1300;24220;-29
2022/03/11 00:59:22;;;;;;;76.60;21.00;;;;;;;-5.34;69.93;101210.19;103591;1300;24254;-25
2022/03/11 01:01:47;;;;;;;55.90;21.10;;;;;;;-5.38;70.09;101212.77;103608;1300;22658;-26
2022/03/11 01:04:13;;;;;;;38.10;14.80;;;;;;;-5.41;70.12;101213.57;103537;1303;23987;-26
2022/03/11 01:06:40;;;;;;;62.40;19.70;;;;;;;-5.45;70.60;101208.81;103560;1300;24198;-26
2022/03/11 01:09:06;;;;;;;66.40;18.90;;;;;;;-5.48;70.16;101209.10;103596;1300;24467;-26
2022/03/11 01:11:32;;;;;;;49.20;15.70;;;;;;;-5.53;69.94;101210.65;103568;1300;24198;-27
2022/03/11 01:13:57;;;;;;;42.80;12.20;;;;;;;-5.53;70.58;101208.36;103577;1300;24282;-29
2022/03/11 01:16:23;;;;;;;35.40;10.70;;;;;;;-5.53;70.31;101205.76;103498;1302;24353;-29
2022/03/11 01:18:50;;;;;;;28.70;11.20;;;;;;;-5.54;70.42;101209.45;103612;1300;24248;-31
2022/03/11 01:21:16;;;;;;;40.40;13.50;;;;;;;-5.59;70.60;101211.92;103555;1300;24240;-25
2022/03/11 01:23:42;;;;;;;37.40;13.30;;;;;;;-5.61;70.73;101206.91;103585;1300;24332;-25
2022/03/11 01:26:07;;;;;;;27.60;10.40;;;;;;;-5.67;71.13;101205.85;103535;1300;24220;-25
2022/03/11 01:28:33;;;;;;;24.50;11.20;;;;;;;-5.70;71.27;101203.50;103553;1300;24348;-30
2022/03/11 01:31:00;;;;;;;21.80;11.00;;;;;;;-5.70;71.44;101203.00;103598;1300;24327;-28
2022/03/11 01:33:26;;;;;;;38.60;12.40;;;;;;;-5.69;71.54;101200.66;103584;1300;22749;-29
2022/03/11 01:35:51;;;;;;;46.60;15.10;;;;;;;-5.68;71.63;101203.62;103489;1300;24215;-29
2022/03/11 01:38:17;;;;;;;35.70;10.00;;;;;;;-5.70;71.52;101201.58;103569;1300;24372;-29
2022/03/11 01:40:43;;;;;;;25.90;11.10;;;;;;;-5.72;71.43;101198.16;103604;1300;24360;-26
2022/03/11 01:43:13;;;;;;;46.50;13.30;;;;;;;-5.74;71.33;101200.34;103643;1300;22511;-27
2022/03/11 01:45:39;;;;;;;33.40;8.90;;;;;;;-5.73;70.97;101195.77;103563;1300;25384;-29
2022/03/11 01:48:05;;;;;;;21.50;9.50;;;;;;;-5.77;71.25;101193.27;103549;1300;24357;-26
2022/03/11 01:50:30;;;;;;;42.30;12.40;;;;;;;-5.77;71.66;101187.00;103539;1300;24321;-28
2022/03/11 01:52:57;;;;;;;32.10;11.70;;;;;;;-5.76;71.98;101186.29;103593;1300;24224;-28
2022/03/11 01:55:23;;;;;;;24.70;9.30;;;;;;;-5.77;72.15;101188.23;103601;1300;24307;-26
2022/03/11 01:57:48;;;;;;;27.50;9.10;;;;;;;-5.77;71.87;101185.24;103601;1300;24246;-25
2022/03/11 02:00:14;;;;;;;22.30;10.50;;;;;;;-5.74;71.17;101188.11;103559;1300;24308;-28
2022/03/11 02:02:40;;;;;;;16.00;6.90;;;;;;;-5.74;71.37;101188.11;103540;1302;24285;-28
2022/03/11 02:05:07;;;;;;;20.90;8.00;;;;;;;-5.77;71.95;101183.14;103495;1301;24246;-25
2022/03/11 02:07:32;;;;;;;15.30;7.20;;;;;;;-5.79;71.78;101182.35;103535;1300;24660;-25
2022/03/11 02:09:58;;;;;;;24.80;8.20;;;;;;;-5.79;71.47;101177.80;103495;1300;24422;-28
2022/03/11 02:12:29;;;;;;;25.70;10.60;;;;;;;-5.80;71.43;101176.95;103475;1301;24302;-25
2022/03/11 02:14:55;;;;;;;27.40;12.40;;;;;;;-5.82;71.94;101175.63;103493;1300;24279;-28
2022/03/11 02:17:21;;;;;;;32.80;11.60;;;;;;;-5.81;71.48;101171.76;103563;1302;24236;-25
2022/03/11 02:19:49;;;;;;;28.90;9.60;;;;;;;-5.83;71.62;101173.92;103507;1300;24256;-25
2022/03/11 02:22:15;;;;;;;25.20;9.90;;;;;;;-5.88;71.72;101168.67;103504;1302;24249;-25
2022/03/11 02:24:41;;;;;;;37.20;13.20;;;;;;;-5.88;71.23;101170.25;103557;1300;24300;-28
2022/03/11 02:27:07;;;;;;;27.90;9.60;;;;;;;-5.88;71.16;101170.41;103533;1300;24215;-29
2022/03/11 02:29:32;;;;;;;28.10;11.30;;;;;;;-5.87;71.19;101170.91;103520;1300;24300;-28
2022/03/11 02:31:58;;;;;;;23.80;11.00;;;;;;;-5.88;71.02;101170.94;103517;1301;24250;-27
2022/03/11 02:34:24;;;;;;;18.40;9.00;;;;;;;-5.88;70.81;101172.00;103509;1300;24364;-24
2022/03/11 02:36:50;;;;;;;25.00;8.90;;;;;;;-5.89;70.60;101167.64;103554;1300;24346;-26
2022/03/11 02:39:15;;;;;;;23.60;8.80;;;;;;;-5.90;70.28;101166.82;103601;1300;24311;-25
2022/03/11 02:41:43;;;;;;;18.10;7.30;;;;;;;-5.92;70.32;101163.73;103592;1300;24245;-30
2022/03/11 02:44:10;;;;;;;25.50;9.00;;;;;;;-5.95;70.01;101164.38;103619;1300;24172;-26
2022/03/11 02:46:36;;;;;;;18.60;8.80;;;;;;;-5.92;70.06;101162.55;103574;1300;24314;-25
2022/03/11 02:49:02;;;;;;;23.60;8.70;;;;;;;-5.91;69.82;101167.02;103518;1300;24365;-29
2022/03/11 02:51:28;;;;;;;29.40;8.60;;;;;;;-5.92;70.02;101162.86;103577;1300;24294;-28
2022/03/11 02:53:53;;;;;;;28.10;10.40;;;;;;;-5.93;69.46;101164.84;103530;1300;24241;-25
2022/03/11 02:56:21;;;;;;;27.20;10.60;;;;;;;-5.94;69.36;101166.27;103491;1300;24313;-29
2022/03/11 02:58:46;;;;;;;25.10;10.80;;;;;;;-5.98;69.79;101164.48;103573;1300;24298;-28
2022/03/11 03:01:12;;;;;;;18.70;8.20;;;;;;;-6.02;69.72;101160.80;103557;1300;24196;-28
2022/03/11 03:03:38;;;;;;;22.30;6.90;;;;;;;-6.03;69.71;101162.72;103550;1300;24397;-25
2022/03/11 03:06:04;;;;;;;22.80;8.10;;;;;;;-6.03;70.00;101166.06;103526;1300;24426;-26
2022/03/11 03:08:30;;;;;;;30.40;9.40;;;;;;;-6.06;69.68;101165.25;103570;1300;24339;-25
2022/03/11 03:10:56;;;;;;;27.20;7.90;;;;;;;-6.06;69.67;101170.69;103527;1300;24280;-28
2022/03/11 03:13:21;;;;;;;16.90;7.60;;;;;;;-6.10;70.05;101170.08;103577;1300;24243;-25
2022/03/11 03:15:47;;;;;;;32.20;9.50;;;;;;;-6.13;69.96;101165.82;103601;1300;24301;-28
2022/03/11 03:18:13;;;;;;;47.20;14.90;;;;;;;-6.17;69.71;101166.48;103634;1300;24386;-28
2022/03/11 03:20:39;;;;;;;68.20;16.10;;;;;;;-6.21;69.58;101169.73;103636;1300;24356;-26
2022/03/11 03:23:04;;;;;;;114.70;26.30;;;;;;;-6.25;69.74;101173.52;103610;1300;24216;-25
2022/03/11 03:25:30;;;;;;;60.60;19.50;;;;;;;-6.27;69.51;101172.69;103611;1299;24238;-28
2022/03/11 03:27:56;;;;;;;36.90;16.50;;;;;;;-6.25;69.81;101174.21;103460;1300;24239;-28
2022/03/11 03:30:22;;;;;;;53.50;15.00;;;;;;;-6.23;69.84;101177.13;103561;1300;24219;-25
2022/03/11 03:32:48;;;;;;;55.30;15.90;;;;;;;-6.26;69.92;101177.91;103579;1300;24185;-25
2022/03/11 03:35:14;;;;;;;37.70;12.80;;;;;;;-6.26;69.79;101176.00;103621;1300;24204;-27
2022/03/11 03:37:40;;;;;;;38.30;13.60;;;;;;;-6.22;69.32;101172.19;103600;1300;24246;-29
2022/03/11 03:40:07;;;;;;;30.20;10.20;;;;;;;-6.21;69.20;101173.89;103589;1300;24244;-26
2022/03/11 03:42:33;;;;;;;20.10;8.80;;;;;;;-6.19;68.84;101174.39;103558;1300;24371;-25
2022/03/11 03:44:58;;;;;;;20.50;8.90;;;;;;;-6.17;68.93;101175.88;103478;1300;24298;-25
2022/03/11 03:47:24;;;;;;;16.80;7.70;;;;;;;-6.17;68.78;101173.29;103549;1300;24214;-25
2022/03/11 03:49:50;;;;;;;20.90;8.60;;;;;;;-6.21;68.67;101170.95;103572;1300;24248;-25
2022/03/11 03:52:15;;;;;;;19.00;8.60;;;;;;;-6.23;68.77;101168.05;103572;1302;24373;-28
2022/03/11 03:54:41;;;;;;;24.60;9.70;;;;;;;-6.25;68.72;101168.62;103615;1300;22634;-27
2022/03/11 03:57:07;;;;;;;27.10;8.40;;;;;;;-6.29;68.48;101167.70;103566;1300;24246;-29
2022/03/11 03:59:33;;;;;;;15.20;6.30;;;;;;;-6.36;68.66;101172.27;103577;1300;24257;-25
2022/03/11 04:01:59;;;;;;;22.10;8.50;;;;;;;-6.38;68.96;101171.45;103567;1300;24300;-28
2022/03/11 04:04:24;;;;;;;17.70;7.90;;;;;;;-6.37;68.85;101176.82;103535;1303;24278;-26
2022/03/11 04:06:50;;;;;;;21.50;9.10;;;;;;;-6.35;69.21;101175.40;103573;1300;24205;-28
2022/03/11 04:09:16;;;;;;;15.10;6.80;;;;;;;-6.36;69.00;101175.56;103546;1300;24211;-25
2022/03/11 04:11:42;;;;;;;20.30;9.10;;;;;;;-6.40;68.93;101179.73;103532;1302;24412;-28
2022/03/11 04:14:07;;;;;;;25.10;8.60;;;;;;;-6.44;68.91;101179.27;103265;1300;457230;-25
2022/03/11 04:16:34;;;;;;;28.50;8.20;;;;;;;-6.46;68.78;101177.80;103544;1300;24214;-25
2022/03/11 04:18:59;;;;;;;17.80;7.60;;;;;;;-6.49;68.58;101179.45;103513;1300;24403;-27
2022/03/11 04:21:25;;;;;;;13.80;5.30;;;;;;;-6.50;68.46;101175.84;103545;1300;22506;-25
2022/03/11 04:23:51;;;;;;;17.40;6.30;;;;;;;-6.52;69.02;101177.13;103550;1299;24282;-28
2022/03/11 04:26:17;;;;;;;15.40;6.10;;;;;;;-6.54;68.83;101176.98;103540;1300;24195;-27
2022/03/11 04:28:43;;;;;;;16.40;7.00;;;;;;;-6.54;69.11;101176.30;103566;1300;24317;-28
2022/03/11 04:31:09;;;;;;;16.60;7.10;;;;;;;-6.54;69.23;101173.02;103530;1300;24349;-28
2022/03/11 04:33:36;;;;;;;21.20;8.70;;;;;;;-6.57;69.05;101176.20;103552;1303;24233;-28
2022/03/11 04:36:03;;;;;;;24.20;7.70;;;;;;;-6.58;68.89;101179.02;103504;1302;24210;-27
2022/03/11 04:38:30;;;;;;;16.20;7.00;;;;;;;-6.57;68.68;101178.80;103645;1300;24291;-27
2022/03/11 04:40:56;;;;;;;17.40;7.40;;;;;;;-6.54;68.52;101178.02;103579;1300;22499;-25
2022/03/11 04:43:22;;;;;;;15.20;6.40;;;;;;;-6.52;68.21;101178.69;103572;1300;24419;-25
2022/03/11 04:45:47;;;;;;;14.90;6.20;;;;;;;-6.54;68.46;101177.70;103492;1302;24386;-25
2022/03/11 04:48:13;;;;;;;13.70;6.30;;;;;;;-6.53;68.44;101178.89;103587;1300;24321;-28
2022/03/11 04:50:39;;;;;;;24.10;7.00;;;;;;;-6.48;68.41;101171.95;103604;1300;24176;-28
2022/03/11 04:53:05;;;;;;;19.00;7.40;;;;;;;-6.50;68.36;101169.71;103548;1299;24439;-24
2022/03/11 04:55:30;;;;;;;23.10;7.80;;;;;;;-6.48;68.18;101171.95;103669;1300;24251;-26
2022/03/11 04:57:56;;;;;;;13.50;6.40;;;;;;;-6.48;68.32;101171.06;103502;1300;24253;-25
2022/03/11 05:00:22;;;;;;;22.00;8.30;;;;;;;-6.46;67.81;101171.17;103601;1300;24212;-25
2022/03/11 05:02:48;;;;;;;21.70;7.70;;;;;;;-6.54;68.05;101174.71;103540;1300;23017;-25
2022/03/11 05:05:14;;;;;;;17.60;7.90;;;;;;;-6.59;67.93;101176.25;103606;1300;24195;-26
2022/03/11 05:07:40;;;;;;;18.00;6.40;;;;;;;-6.60;67.98;101178.72;103564;1302;24215;-27
2022/03/11 05:10:08;;;;;;;17.20;8.10;;;;;;;-6.52;67.70;101182.84;103597;1300;24307;-27
2022/03/11 05:12:35;;;;;;;29.70;16.00;;;;;;;-6.53;67.67;101186.02;103586;1300;24368;-26
2022/03/11 05:15:02;;;;;;;36.90;15.40;;;;;;;-6.55;67.63;101187.66;103595;1300;24253;-24
2022/03/11 05:17:28;;;;;;;33.10;11.70;;;;;;;-6.57;67.57;101190.66;103571;1300;24279;-28
2022/03/11 05:19:53;;;;;;;40.10;16.40;;;;;;;-6.57;67.45;101193.95;103543;1300;24267;-29
2022/03/11 05:22:19;;;;;;;436.80;159.60;;;;;;;-6.50;67.53;101194.83;103544;1300;22943;-25
2022/03/11 05:24:45;;;;;;;389.10;148.00;;;;;;;-6.45;67.37;101197.11;103480;1301;24298;-24
2022/03/11 05:27:11;;;;;;;168.80;58.80;;;;;;;-6.41;67.29;101194.02;103610;1300;24233;-25
2022/03/11 05:29:37;;;;;;;354.50;114.80;;;;;;;-6.40;67.07;101193.31;103582;1300;24401;-29
2022/03/11 05:32:04;;;;;;;68.70;27.40;;;;;;;-6.40;67.04;101193.31;103567;1300;24317;-24
2022/03/11 05:34:31;;;;;;;19.40;8.90;;;;;;;-6.38;67.05;101192.39;103559;1302;22557;-29
2022/03/11 05:36:57;;;;;;;57.30;20.60;;;;;;;-6.35;66.63;101194.20;103552;1300;25121;-25
2022/03/11 05:39:22;;;;;;;19.40;8.80;;;;;;;-6.31;66.53;101197.58;103603;1300;22503;-40
2022/03/11 05:41:48;;;;;;;39.40;17.20;;;;;;;-6.31;66.63;101196.70;103592;1300;24215;-25
2022/03/11 05:44:16;;;;;;;35.40;11.70;;;;;;;-6.28;66.36;101193.32;103570;1300;24377;-25
2022/03/11 05:46:43;;;;;;;21.30;8.30;;;;;;;-6.26;66.29;101193.42;103621;1300;22513;-28
2022/03/11 05:49:09;;;;;;;20.50;6.10;;;;;;;-6.20;66.19;101192.71;103563;1300;24240;-25
2022/03/11 05:51:35;;;;;;;23.50;8.50;;;;;;;-6.12;65.85;101189.51;103686;1300;24352;-25
2022/03/11 05:54:01;;;;;;;17.00;7.90;;;;;;;-6.08;65.79;101192.70;103696;1300;22673;-25
2022/03/11 05:56:27;;;;;;;21.00;7.80;;;;;;;-6.05;65.85;101196.10;103567;1300;24389;-26
2022/03/11 05:58:53;;;;;;;16.30;7.90;;;;;;;-6.01;65.49;101194.75;103654;1299;22489;-28
2022/03/11 06:01:19;;;;;;;20.70;9.50;;;;;;;-5.98;65.54;101199.36;103548;1300;24403;-27
2022/03/11 06:03:46;;;;;;;25.70;9.00;;;;;;;-5.93;65.23;101204.41;103797;1299;24249;-27
2022/03/11 06:06:14;;;;;;;21.90;10.00;;;;;;;-5.86;65.16;101206.63;103579;1300;24298;-25
2022/03/11 06:08:39;;;;;;;21.10;7.90;;;;;;;-5.81;65.30;101208.91;103646;1299;24247;-25
2022/03/11 06:11:06;;;;;;;24.80;10.00;;;;;;;-5.75;65.05;101218.48;103624;1300;24435;-28
2022/03/11 06:13:32;;;;;;;17.40;8.10;;;;;;;-5.66;64.86;101218.91;103689;1300;24210;-28
2022/03/11 06:15:58;;;;;;;21.90;10.00;;;;;;;-5.52;64.98;101216.91;103564;1300;24250;-26
2022/03/11 06:18:23;;;;;;;24.00;10.60;;;;;;;-5.33;64.79;101217.31;103566;1300;24477;-25
2022/03/11 06:20:49;;;;;;;20.30;8.50;;;;;;;-5.13;64.44;101215.42;103492;1300;24249;-25
2022/03/11 06:23:15;;;;;;;14.40;7.10;;;;;;;-4.98;63.99;101218.23;103531;1300;24212;-26
2022/03/11 06:25:42;;;;;;;18.60;6.70;;;;;;;-4.75;62.38;101222.88;103530;1299;24157;-26
2022/03/11 06:28:08;;;;;;;20.90;8.20;;;;;;;-4.67;62.23;101226.77;103706;1299;24031;-30
2022/03/11 06:30:34;;;;;;;28.60;9.60;;;;;;;-4.64;62.01;101228.06;103583;1300;24238;-27
2022/03/11 06:33:00;;;;;;;33.40;12.10;;;;;;;-4.60;62.38;101230.17;103641;1299;24335;-30
2022/03/11 06:35:26;;;;;;;55.10;9.40;;;;;;;-4.53;61.99;101228.00;103673;1299;24307;-26
2022/03/11 06:37:52;;;;;;;26.50;11.20;;;;;;;-4.51;61.61;101225.66;103729;1299;24342;-26
2022/03/11 06:40:18;;;;;;;30.00;9.50;;;;;;;-4.48;61.15;101229.75;103679;1299;24273;-28
2022/03/11 06:42:45;;;;;;;28.30;12.00;;;;;;;-4.48;60.86;101230.61;103532;1301;24285;-29
2022/03/11 06:45:12;;;;;;;33.50;7.70;;;;;;;-4.48;59.79;101228.14;103611;1299;24444;-26
2022/03/11 06:47:38;;;;;;;22.80;9.80;;;;;;;-4.45;60.64;101229.64;103453;1301;24247;-25
2022/03/11 06:50:04;;;;;;;24.90;8.20;;;;;;;-4.36;61.05;101226.49;103577;1300;24224;-25
2022/03/11 06:52:30;;;;;;;21.50;7.50;;;;;;;-4.26;59.80;101229.08;103542;1302;24487;-29
2022/03/11 06:54:55;;;;;;;28.70;10.20;;;;;;;-4.25;59.12;101228.55;103559;1300;24305;-29
2022/03/11 06:57:21;;;;;;;20.30;8.60;;;;;;;-4.17;59.07;101232.45;103560;1300;24282;-26
2022/03/11 06:59:47;;;;;;;25.70;10.30;;;;;;;-4.10;57.72;101230.06;103511;1300;24202;-29
2022/03/11 07:02:14;;;;;;;48.00;16.30;;;;;;;-4.13;57.93;101231.06;103646;1300;23006;-25
2022/03/11 07:04:40;;;;;;;35.50;14.90;;;;;;;-4.06;57.93;101233.77;103506;1302;22724;-26
2022/03/11 07:07:06;;;;;;;27.90;12.10;;;;;;;-4.00;57.42;101231.27;103653;1300;24319;-29
2022/03/11 07:09:33;;;;;;;26.10;11.80;;;;;;;-3.87;57.21;101227.46;103699;1299;24242;-25
2022/03/11 07:12:01;;;;;;;15.70;7.00;;;;;;;-3.71;56.36;101228.41;103684;1299;24418;-28
2022/03/11 07:14:27;;;;;;;17.30;9.10;;;;;;;-3.54;55.75;101229.80;103569;1300;24263;-25
2022/03/11 07:16:56;;;;;;;48.00;9.50;;;;;;;-3.32;54.62;101232.77;103615;1302;22952;-25
2022/03/11 07:19:23;;;;;;;36.00;7.10;;;;;;;-3.07;55.17;101233.52;103719;1300;24364;-25
2022/03/11 07:21:48;;;;;;;48.60;11.70;;;;;;;-2.81;53.63;101232.55;103695;1300;24214;-25
2022/03/11 07:24:14;;;;;;;33.60;7.60;;;;;;;-2.58;53.08;101234.02;103545;1303;24476;-26
2022/03/11 07:26:40;;;;;;;29.50;8.40;;;;;;;-2.32;52.88;101230.74;103548;1300;24297;-27
2022/03/11 07:29:06;;;;;;;18.70;6.50;;;;;;;-2.18;51.75;101232.89;103547;1302;22513;-29
2022/03/11 07:31:32;;;;;;;11.10;4.90;;;;;;;-2.05;51.61;101236.73;103531;1300;24297;-25
2022/03/11 07:33:58;;;;;;;12.00;5.90;;;;;;;-1.95;50.98;101237.63;103578;1300;24389;-28
2022/03/11 07:36:23;;;;;;;23.50;7.80;;;;;;;-1.80;50.47;101240.82;103675;1300;24277;-28
2022/03/11 07:38:50;;;;;;;14.90;5.40;;;;;;;-1.65;49.65;101243.25;103677;1300;24371;-29
2022/03/11 07:41:16;;;;;;;30.30;9.20;;;;;;;-1.53;48.80;101241.45;103712;1299;24266;-30
2022/03/11 07:43:44;;;;;;;28.80;7.30;;;;;;;-1.44;48.49;101239.78;103546;1300;24237;-30
2022/03/11 07:46:11;;;;;;;37.90;10.40;;;;;;;-1.29;46.32;101233.64;103535;1300;22516;-25
2022/03/11 07:48:37;;;;;;;34.70;8.50;;;;;;;-1.18;46.21;101228.50;103446;1301;24250;-26
2022/03/11 07:51:03;;;;;;;29.80;8.30;;;;;;;-1.06;46.18;101231.77;103515;1301;24256;-26
2022/03/11 07:53:29;;;;;;;12.10;5.20;;;;;;;-0.87;45.22;101230.59;103597;1302;24217;-28
2022/03/11 07:55:54;;;;;;;23.00;8.70;;;;;;;-0.78;44.66;101229.11;103506;1303;24313;-26
2022/03/11 07:58:21;;;;;;;19.90;4.80;;;;;;;-0.67;45.51;101230.14;103531;1300;24389;-26
2022/03/11 08:00:48;;;;;;;10.90;6.10;;;;;;;-0.55;44.12;101231.45;103553;1300;24214;-27
2022/03/11 08:03:15;;;;;;;11.80;6.10;;;;;;;-0.49;44.12;101226.89;103589;1300;24428;-25
2022/03/11 08:05:41;;;;;;;16.00;6.40;;;;;;;-0.35;43.27;101223.68;103633;1300;24219;-28
2022/03/11 08:08:07;;;;;;;9.40;3.90;;;;;;;-0.23;43.69;101228.33;103620;1300;24225;-25
2022/03/11 08:10:33;;;;;;;11.40;5.40;;;;;;;-0.19;41.63;101227.61;103524;1300;24314;-26
2022/03/11 08:13:00;;;;;;;19.40;8.50;;;;;;;-0.15;42.39;101228.06;103520;1300;24245;-26
2022/03/11 08:15:26;;;;;;;8.90;4.90;;;;;;;0.10;42.46;101232.30;103574;1300;24301;-29
2022/03/11 08:17:52;;;;;;;19.40;6.10;;;;;;;0.15;41.66;101229.45;103502;1301;24178;-26
2022/03/11 08:20:18;;;;;;;11.40;4.60;;;;;;;0.17;41.88;101225.45;103511;1300;24230;-29
2022/03/11 08:22:45;;;;;;;11.80;4.20;;;;;;;0.39;40.84;101220.66;103563;1300;24272;-26
2022/03/11 08:25:11;;;;;;;11.10;5.60;;;;;;;0.31;40.24;101217.61;103600;1300;24199;-31
2022/03/11 08:27:38;;;;;;;9.20;4.80;;;;;;;0.21;40.80;101226.27;103563;1300;24416;-27
2022/03/11 08:30:05;;;;;;;6.40;3.40;;;;;;;0.28;40.53;101228.72;103590;1300;24301;-25
2022/03/11 08:32:31;;;;;;;9.90;5.00;;;;;;;0.39;39.90;101224.90;103622;1300;24356;-25
2022/03/11 08:34:58;;;;;;;9.90;5.10;;;;;;;0.43;39.58;101224.32;103674;1300;24214;-28
2022/03/11 08:37:25;;;;;;;6.30;3.80;;;;;;;0.54;40.01;101221.04;103556;1302;24255;-25
2022/03/11 08:39:51;;;;;;;7.70;4.20;;;;;;;0.77;39.50;101218.66;103579;1300;24256;-30
2022/03/11 08:42:17;;;;;;;7.10;3.60;;;;;;;0.78;38.57;101221.30;103551;1300;24219;-25
2022/03/11 08:44:42;;;;;;;10.40;3.70;;;;;;;0.81;40.31;101220.19;103478;1300;24148;-28
2022/03/11 08:47:09;;;;;;;15.20;7.30;;;;;;;1.05;39.45;101216.18;103512;1300;22505;-25
2022/03/11 08:49:34;;;;;;;11.90;3.70;;;;;;;1.21;38.38;101213.99;103564;1300;24451;-29
2022/03/11 08:52:00;;;;;;;9.40;3.80;;;;;;;1.28;38.65;101213.75;103559;1300;22756;-25
2022/03/11 08:54:26;;;;;;;19.10;6.70;;;;;;;1.40;38.10;101208.96;103513;1300;24201;-25
2022/03/11 08:56:53;;;;;;;9.80;5.30;;;;;;;1.63;38.27;101212.27;103545;1301;24278;-26
2022/03/11 08:59:19;;;;;;;13.30;5.10;;;;;;;1.82;38.06;101215.53;103608;1300;24385;-25
2022/03/11 09:01:45;;;;;;;20.30;7.20;;;;;;;1.89;37.11;101216.01;103566;1300;24211;-23
2022/03/11 09:04:10;;;;;;;11.90;5.00;;;;;;;2.18;37.48;101213.95;103433;1302;24224;-25
2022/03/11 09:06:37;;;;;;;14.90;3.20;;;;;;;2.34;36.59;101218.21;103570;1299;24233;-25
2022/03/11 09:09:03;;;;;;;11.90;4.00;;;;;;;2.30;36.32;101214.45;103552;1300;24390;-28
2022/03/11 09:11:28;;;;;;;11.40;4.40;;;;;;;2.17;35.35;101211.00;103551;1300;24729;-27
2022/03/11 09:13:54;;;;;;;19.60;5.70;;;;;;;2.26;34.89;101213.60;103565;1300;24227;-25
2022/03/11 09:16:20;;;;;;;9.20;4.40;;;;;;;2.31;35.25;101216.67;103521;1300;24362;-25
2022/03/11 09:18:45;;;;;;;51.90;21.10;;;;;;;2.33;35.42;101213.21;103565;1299;24196;-28
2022/03/11 09:21:12;;;;;;;34.80;15.60;;;;;;;2.42;34.62;101210.30;103551;1300;24246;-28
2022/03/11 09:23:39;;;;;;;6.90;4.30;;;;;;;2.44;34.19;101212.48;103560;1300;24367;-25
2022/03/11 09:26:05;;;;;;;12.00;4.00;;;;;;;2.58;34.00;101209.77;103474;1302;24295;-28
2022/03/11 09:28:31;;;;;;;6.60;4.20;;;;;;;2.55;34.19;101210.89;103535;1300;25349;-28
2022/03/11 09:30:57;;;;;;;6.90;3.10;;;;;;;2.64;34.39;101209.20;103551;1300;24251;-25
2022/03/11 09:33:24;;;;;;;7.30;4.50;;;;;;;2.78;33.42;101205.08;103516;1300;22721;-27
2022/03/11 09:35:49;;;;;;;8.80;3.50;;;;;;;2.59;33.56;101203.75;103593;1300;22832;-28
2022/03/11 09:38:15;;;;;;;15.40;4.10;;;;;;;2.73;33.47;101199.43;103624;1300;24340;-29
2022/03/11 09:40:43;;;;;;;7.10;4.30;;;;;;;2.74;33.28;101204.15;103556;1300;24429;-25
2022/03/11 09:43:11;;;;;;;12.40;5.20;;;;;;;2.66;33.32;101206.60;103591;1300;24256;-29
2022/03/11 09:45:37;;;;;;;7.80;3.80;;;;;;;2.88;33.19;101195.08;103618;1300;24187;-28
2022/03/11 09:48:03;;;;;;;5.40;3.60;;;;;;;2.88;32.58;101195.23;103534;1300;24414;-25
2022/03/11 09:50:29;;;;;;;14.40;5.70;;;;;;;3.10;32.54;101197.63;103624;1300;24234;-28
2022/03/11 09:52:55;;;;;;;8.60;4.70;;;;;;;3.19;32.65;101197.52;103505;1301;24311;-25
2022/03/11 09:55:21;;;;;;;12.00;4.90;;;;;;;3.20;33.18;101198.36;103367;1302;24195;-28
2022/03/11 09:57:47;;;;;;;8.50;4.60;;;;;;;3.32;33.00;101191.56;103592;1301;24215;-25
2022/03/11 10:00:13;;;;;;;12.50;4.70;;;;;;;3.56;31.85;101188.64;103537;1300;24348;-25
2022/03/11 10:02:42;;;;;;;14.80;6.20;;;;;;;3.72;32.09;101190.02;103488;1302;24343;-26
2022/03/11 10:05:07;;;;;;;28.80;12.10;;;;;;;3.81;32.26;101186.74;103556;1300;24319;-28
2022/03/11 10:07:33;;;;;;;12.60;4.30;;;;;;;4.02;31.04;101180.76;103481;1302;24192;-27
2022/03/11 10:10:12;;;;;;;11.40;5.90;;;;;;;3.78;30.61;101180.87;103540;1302;24336;-26
2022/03/11 10:12:41;;;;;;;17.40;6.00;;;;;;;3.65;31.70;101178.42;103587;1302;24324;-25
2022/03/11 10:15:07;;;;;;;10.40;5.80;;;;;;;3.84;31.64;101182.02;103507;1300;24211;-28
2022/03/11 10:17:37;;;;;;;5.70;3.70;;;;;;;3.92;31.85;101180.39;103590;1303;24212;-25
2022/03/11 10:20:06;;;;;;;14.00;6.00;;;;;;;4.31;30.71;101177.23;103649;1302;24352;-28
2022/03/11 10:22:32;;;;;;;11.70;5.60;;;;;;;4.38;29.46;101178.14;103517;1302;25038;-27
2022/03/11 10:25:01;;;;;;;14.70;6.50;;;;;;;4.17;30.09;101179.16;103474;1302;24293;-26
2022/03/11 10:27:27;;;;;;;18.50;4.70;;;;;;;4.19;30.53;101182.33;103592;1300;24300;-25
2022/03/11 10:29:56;;;;;;;23.30;6.20;;;;;;;4.24;30.07;101184.13;103598;1300;24297;-25
2022/03/11 10:32:23;;;;;;;15.40;5.10;;;;;;;4.29;30.37;101190.64;103474;1302;22559;-28
2022/03/11 10:34:49;;;;;;;11.40;4.00;;;;;;;4.46;29.65;101183.73;103566;1300;24153;-25
2022/03/11 10:37:16;;;;;;;23.80;9.70;;;;;;;4.38;29.22;101186.80;103573;1301;24298;-28
2022/03/11 10:39:43;;;;;;;14.50;6.00;;;;;;;4.55;29.48;101181.45;103711;1303;22691;-29
2022/03/11 10:42:12;;;;;;;10.40;6.20;;;;;;;4.69;28.35;101177.92;103559;1302;24220;-25
2022/03/11 10:44:38;;;;;;;13.60;6.10;;;;;;;4.70;29.13;101177.15;103470;1302;23942;-25
2022/03/11 10:47:11;;;;;;;17.70;4.30;;;;;;;4.96;28.60;101177.33;103569;1302;22631;-28
2022/03/11 10:49:37;;;;;;;9.40;4.90;;;;;;;5.04;27.56;101174.80;103543;1300;22572;-25
2022/03/11 10:52:03;;;;;;;13.20;5.20;;;;;;;4.95;27.28;101173.16;103490;1302;24304;-28
2022/03/11 10:54:29;;;;;;;9.20;3.60;;;;;;;5.00;27.99;101174.17;103594;1300;24301;-25
2022/03/11 10:56:55;;;;;;;6.70;4.30;;;;;;;5.14;27.30;101171.36;103550;1302;22798;-25
2022/03/11 10:59:21;;;;;;;5.40;3.90;;;;;;;5.08;27.08;101167.21;103618;1300;24167;-29
2022/03/11 11:01:47;;;;;;;5.40;3.20;;;;;;;5.06;27.53;101164.10;103526;1302;22515;-25
2022/03/11 11:04:14;;;;;;;5.50;3.10;;;;;;;5.06;27.63;101165.71;103541;1302;24241;-28